sensor_id;sensor_type;location;lat;lon;timestamp;P1;durP1;ratioP1;P2;durP2;ratioP2
10170;SDS011;5127;50.922;6.988;2023-01-01T00:00:16;19.00;;;14.03;;
10170;SDS011;5127;50.922;6.988;2023-01-01T00:02:43;19.83;;;13.67;;
10170;SDS011;5127;50.922;6.988;2023-01-01T00:05:11;15.77;;;11.63;;
10170;SDS011;5127;50.922;6.988;2023-01-01T00:07:39;15.80;;;11.23;;
10170;SDS011;5127;50.922;6.988;2023-01-01T00:10:08;14.93;;;9.77;;
10170;SDS011;5127;50.922;6.988;2023-01-01T00:12:54;13.30;;;8.47;;
10170;SDS011;5127;50.922;6.988;2023-01-01T00:15:22;12.13;;;7.90;;
10170;SDS011;5127;50.922;6.988;2023-01-01T00:17:50;10.67;;;7.40;;
10170;SDS011;5127;50.922;6.988;2023-01-01T00:20:17;9.77;;;6.97;;
10170;SDS011;5127;50.922;6.988;2023-01-01T00:22:46;11.83;;;7.30;;
10170;SDS011;5127;50.922;6.988;2023-01-01T00:25:13;8.53;;;6.17;;
10170;SDS011;5127;50.922;6.988;2023-01-01T00:27:42;8.70;;;5.97;;
10170;SDS011;5127;50.922;6.988;2023-01-01T00:30:10;6.07;;;5.00;;
10170;SDS011;5127;50.922;6.988;2023-01-01T00:32:38;6.87;;;4.23;;
10170;SDS011;5127;50.922;6.988;2023-01-01T00:35:05;6.50;;;3.90;;
10170;SDS011;5127;50.922;6.988;2023-01-01T00:37:33;5.33;;;4.00;;
10170;SDS011;5127;50.922;6.988;2023-01-01T00:40:02;6.43;;;3.67;;
10170;SDS011;5127;50.922;6.988;2023-01-01T00:42:29;8.93;;;6.80;;
10170;SDS011;5127;50.922;6.988;2023-01-01T00:44:57;8.83;;;5.80;;
10170;SDS011;5127;50.922;6.988;2023-01-01T00:47:24;7.00;;;3.40;;
10170;SDS011;5127;50.922;6.988;2023-01-01T00:49:51;4.97;;;3.00;;
10170;SDS011;5127;50.922;6.988;2023-01-01T00:52:18;5.00;;;2.67;;
10170;SDS011;5127;50.922;6.988;2023-01-01T00:54:45;5.70;;;2.37;;
10170;SDS011;5127;50.922;6.988;2023-01-01T00:57:14;3.37;;;2.17;;
10170;SDS011;5127;50.922;6.988;2023-01-01T00:59:41;3.93;;;2.20;;
10170;SDS011;5127;50.922;6.988;2023-01-01T01:02:08;3.57;;;2.10;;
10170;SDS011;5127;50.922;6.988;2023-01-01T01:04:36;4.73;;;1.93;;
10170;SDS011;5127;50.922;6.988;2023-01-01T01:07:03;3.27;;;2.13;;
10170;SDS011;5127;50.922;6.988;2023-01-01T01:09:31;4.43;;;2.07;;
10170;SDS011;5127;50.922;6.988;2023-01-01T01:11:58;2.83;;;2.10;;
10170;SDS011;5127;50.922;6.988;2023-01-01T01:14:27;2.10;;;1.60;;
10170;SDS011;5127;50.922;6.988;2023-01-01T01:16:54;3.07;;;2.10;;
10170;SDS011;5127;50.922;6.988;2023-01-01T01:19:21;3.60;;;2.00;;
10170;SDS011;5127;50.922;6.988;2023-01-01T01:21:50;4.53;;;2.40;;
10170;SDS011;5127;50.922;6.988;2023-01-01T01:24:17;3.33;;;2.03;;
10170;SDS011;5127;50.922;6.988;2023-01-01T01:26:44;3.20;;;1.90;;
10170;SDS011;5127;50.922;6.988;2023-01-01T01:29:12;3.13;;;2.00;;
10170;SDS011;5127;50.922;6.988;2023-01-01T01:31:40;2.17;;;1.80;;
10170;SDS011;5127;50.922;6.988;2023-01-01T01:34:07;2.80;;;1.60;;
10170;SDS011;5127;50.922;6.988;2023-01-01T01:36:34;2.07;;;1.50;;
10170;SDS011;5127;50.922;6.988;2023-01-01T01:39:02;3.70;;;1.60;;
10170;SDS011;5127;50.922;6.988;2023-01-01T01:41:29;1.67;;;1.53;;
10170;SDS011;5127;50.922;6.988;2023-01-01T01:43:57;2.50;;;1.53;;
10170;SDS011;5127;50.922;6.988;2023-01-01T01:46:27;3.00;;;1.50;;
10170;SDS011;5127;50.922;6.988;2023-01-01T01:48:59;1.87;;;1.30;;
10170;SDS011;5127;50.922;6.988;2023-01-01T01:51:32;3.67;;;1.47;;
10170;SDS011;5127;50.922;6.988;2023-01-01T01:54:04;1.60;;;1.30;;
10170;SDS011;5127;50.922;6.988;2023-01-01T01:56:38;2.70;;;1.40;;
10170;SDS011;5127;50.922;6.988;2023-01-01T01:59:11;1.93;;;1.40;;
10170;SDS011;5127;50.922;6.988;2023-01-01T02:01:39;1.90;;;1.20;;
10170;SDS011;5127;50.922;6.988;2023-01-01T02:04:08;2.83;;;1.30;;
10170;SDS011;5127;50.922;6.988;2023-01-01T02:06:35;2.00;;;1.23;;
10170;SDS011;5127;50.922;6.988;2023-01-01T02:09:05;2.00;;;1.20;;
10170;SDS011;5127;50.922;6.988;2023-01-01T02:11:34;2.30;;;1.30;;
10170;SDS011;5127;50.922;6.988;2023-01-01T02:14:01;2.30;;;1.20;;
10170;SDS011;5127;50.922;6.988;2023-01-01T02:16:32;2.67;;;1.30;;
10170;SDS011;5127;50.922;6.988;2023-01-01T02:19:09;2.77;;;1.10;;
10170;SDS011;5127;50.922;6.988;2023-01-01T02:21:49;3.00;;;1.40;;
10170;SDS011;5127;50.922;6.988;2023-01-01T02:24:34;2.37;;;0.90;;
10170;SDS011;5127;50.922;6.988;2023-01-01T02:27:10;1.77;;;1.10;;
10170;SDS011;5127;50.922;6.988;2023-01-01T02:29:45;1.73;;;1.17;;
10170;SDS011;5127;50.922;6.988;2023-01-01T02:32:17;3.03;;;1.30;;
10170;SDS011;5127;50.922;6.988;2023-01-01T02:34:49;2.10;;;1.23;;
10170;SDS011;5127;50.922;6.988;2023-01-01T02:37:22;2.03;;;1.10;;
10170;SDS011;5127;50.922;6.988;2023-01-01T02:39:54;2.53;;;1.30;;
10170;SDS011;5127;50.922;6.988;2023-01-01T02:42:25;1.20;;;1.10;;
10170;SDS011;5127;50.922;6.988;2023-01-01T02:44:56;3.57;;;1.20;;
10170;SDS011;5127;50.922;6.988;2023-01-01T02:47:24;1.30;;;0.97;;
10170;SDS011;5127;50.922;6.988;2023-01-01T02:49:56;2.50;;;1.50;;
10170;SDS011;5127;50.922;6.988;2023-01-01T02:55:32;2.23;;;1.30;;
10170;SDS011;5127;50.922;6.988;2023-01-01T02:58:06;3.50;;;1.10;;
10170;SDS011;5127;50.922;6.988;2023-01-01T03:01:00;2.63;;;1.10;;
10170;SDS011;5127;50.922;6.988;2023-01-01T03:03:36;2.60;;;1.07;;
10170;SDS011;5127;50.922;6.988;2023-01-01T03:06:07;1.53;;;1.20;;
10170;SDS011;5127;50.922;6.988;2023-01-01T03:08:51;1.67;;;1.00;;
10170;SDS011;5127;50.922;6.988;2023-01-01T03:11:24;2.40;;;1.10;;
10170;SDS011;5127;50.922;6.988;2023-01-01T03:13:57;1.60;;;1.00;;
10170;SDS011;5127;50.922;6.988;2023-01-01T03:16:33;2.00;;;1.33;;
10170;SDS011;5127;50.922;6.988;2023-01-01T03:19:06;1.93;;;1.37;;
10170;SDS011;5127;50.922;6.988;2023-01-01T03:21:41;2.57;;;1.40;;
10170;SDS011;5127;50.922;6.988;2023-01-01T03:24:12;2.63;;;1.07;;
10170;SDS011;5127;50.922;6.988;2023-01-01T03:26:43;5.63;;;1.20;;
10170;SDS011;5127;50.922;6.988;2023-01-01T03:29:13;3.57;;;1.40;;
10170;SDS011;5127;50.922;6.988;2023-01-01T03:31:42;2.20;;;1.10;;
10170;SDS011;5127;50.922;6.988;2023-01-01T03:34:13;1.50;;;1.23;;
10170;SDS011;5127;50.922;6.988;2023-01-01T03:36:44;2.07;;;1.20;;
10170;SDS011;5127;50.922;6.988;2023-01-01T03:39:16;3.27;;;1.37;;
10170;SDS011;5127;50.922;6.988;2023-01-01T03:41:46;3.93;;;1.37;;
10170;SDS011;5127;50.922;6.988;2023-01-01T03:44:20;2.57;;;1.10;;
10170;SDS011;5127;50.922;6.988;2023-01-01T03:46:52;1.97;;;1.07;;
10170;SDS011;5127;50.922;6.988;2023-01-01T03:49:20;1.27;;;1.00;;
10170;SDS011;5127;50.922;6.988;2023-01-01T03:51:52;2.67;;;1.37;;
10170;SDS011;5127;50.922;6.988;2023-01-01T03:54:35;3.17;;;1.10;;
10170;SDS011;5127;50.922;6.988;2023-01-01T03:57:11;2.47;;;1.23;;
10170;SDS011;5127;50.922;6.988;2023-01-01T03:59:46;3.30;;;1.10;;
10170;SDS011;5127;50.922;6.988;2023-01-01T04:02:20;3.00;;;1.10;;
10170;SDS011;5127;50.922;6.988;2023-01-01T04:04:54;1.17;;;0.90;;
10170;SDS011;5127;50.922;6.988;2023-01-01T04:07:23;3.37;;;1.20;;
10170;SDS011;5127;50.922;6.988;2023-01-01T04:09:51;2.23;;;0.93;;
10170;SDS011;5127;50.922;6.988;2023-01-01T04:12:21;3.50;;;1.20;;
10170;SDS011;5127;50.922;6.988;2023-01-01T04:14:49;3.77;;;1.20;;
10170;SDS011;5127;50.922;6.988;2023-01-01T04:17:16;2.33;;;1.30;;
10170;SDS011;5127;50.922;6.988;2023-01-01T04:19:45;3.50;;;1.50;;
10170;SDS011;5127;50.922;6.988;2023-01-01T04:22:12;2.20;;;1.20;;
10170;SDS011;5127;50.922;6.988;2023-01-01T04:24:39;2.23;;;1.20;;
10170;SDS011;5127;50.922;6.988;2023-01-01T04:27:07;1.43;;;1.00;;
10170;SDS011;5127;50.922;6.988;2023-01-01T04:29:34;2.40;;;1.27;;
10170;SDS011;5127;50.922;6.988;2023-01-01T04:32:03;2.23;;;1.30;;
10170;SDS011;5127;50.922;6.988;2023-01-01T04:34:30;3.63;;;1.40;;
10170;SDS011;5127;50.922;6.988;2023-01-01T04:36:59;2.30;;;1.30;;
10170;SDS011;5127;50.922;6.988;2023-01-01T04:39:26;1.53;;;1.07;;
10170;SDS011;5127;50.922;6.988;2023-01-01T04:41:53;2.93;;;1.20;;
10170;SDS011;5127;50.922;6.988;2023-01-01T04:44:20;2.60;;;1.20;;
10170;SDS011;5127;50.922;6.988;2023-01-01T04:46:48;1.57;;;1.10;;
10170;SDS011;5127;50.922;6.988;2023-01-01T04:49:15;2.43;;;1.30;;
10170;SDS011;5127;50.922;6.988;2023-01-01T04:51:42;3.13;;;1.03;;
10170;SDS011;5127;50.922;6.988;2023-01-01T04:54:11;2.80;;;1.10;;
10170;SDS011;5127;50.922;6.988;2023-01-01T04:56:38;2.50;;;1.20;;
10170;SDS011;5127;50.922;6.988;2023-01-01T04:59:05;1.33;;;1.23;;
10170;SDS011;5127;50.922;6.988;2023-01-01T05:01:32;2.57;;;1.20;;
10170;SDS011;5127;50.922;6.988;2023-01-01T05:04:00;2.50;;;1.27;;
10170;SDS011;5127;50.922;6.988;2023-01-01T05:06:27;2.67;;;1.20;;
10170;SDS011;5127;50.922;6.988;2023-01-01T05:08:55;1.37;;;1.20;;
10170;SDS011;5127;50.922;6.988;2023-01-01T05:11:25;1.20;;;1.10;;
10170;SDS011;5127;50.922;6.988;2023-01-01T05:13:53;2.50;;;1.30;;
10170;SDS011;5127;50.922;6.988;2023-01-01T05:16:23;2.70;;;1.50;;
10170;SDS011;5127;50.922;6.988;2023-01-01T05:18:51;1.63;;;1.13;;
10170;SDS011;5127;50.922;6.988;2023-01-01T05:21:20;1.60;;;0.97;;
10170;SDS011;5127;50.922;6.988;2023-01-01T05:23:52;1.73;;;0.90;;
10170;SDS011;5127;50.922;6.988;2023-01-01T05:26:20;1.53;;;0.97;;
10170;SDS011;5127;50.922;6.988;2023-01-01T05:28:50;2.30;;;1.20;;
10170;SDS011;5127;50.922;6.988;2023-01-01T05:31:18;1.67;;;1.10;;
10170;SDS011;5127;50.922;6.988;2023-01-01T05:33:46;3.33;;;1.10;;
10170;SDS011;5127;50.922;6.988;2023-01-01T05:36:14;3.83;;;1.57;;
10170;SDS011;5127;50.922;6.988;2023-01-01T05:38:42;2.83;;;1.10;;
10170;SDS011;5127;50.922;6.988;2023-01-01T05:41:11;3.27;;;1.50;;
10170;SDS011;5127;50.922;6.988;2023-01-01T05:43:40;1.53;;;1.17;;
10170;SDS011;5127;50.922;6.988;2023-01-01T05:46:10;2.53;;;1.10;;
10170;SDS011;5127;50.922;6.988;2023-01-01T05:48:39;4.20;;;1.53;;
10170;SDS011;5127;50.922;6.988;2023-01-01T05:51:08;2.70;;;1.27;;
10170;SDS011;5127;50.922;6.988;2023-01-01T05:53:36;2.90;;;1.60;;
10170;SDS011;5127;50.922;6.988;2023-01-01T05:56:04;2.50;;;1.20;;
10170;SDS011;5127;50.922;6.988;2023-01-01T05:58:32;2.00;;;1.27;;
10170;SDS011;5127;50.922;6.988;2023-01-01T06:01:06;2.17;;;1.33;;
10170;SDS011;5127;50.922;6.988;2023-01-01T06:03:36;4.07;;;1.27;;
10170;SDS011;5127;50.922;6.988;2023-01-01T06:06:04;1.60;;;1.00;;
10170;SDS011;5127;50.922;6.988;2023-01-01T06:08:32;1.77;;;1.23;;
10170;SDS011;5127;50.922;6.988;2023-01-01T06:11:00;2.77;;;1.60;;
10170;SDS011;5127;50.922;6.988;2023-01-01T06:13:29;1.50;;;1.23;;
10170;SDS011;5127;50.922;6.988;2023-01-01T06:15:57;2.90;;;1.40;;
10170;SDS011;5127;50.922;6.988;2023-01-01T06:18:28;2.20;;;1.40;;
10170;SDS011;5127;50.922;6.988;2023-01-01T06:21:03;2.90;;;1.37;;
10170;SDS011;5127;50.922;6.988;2023-01-01T06:23:31;3.50;;;1.37;;
10170;SDS011;5127;50.922;6.988;2023-01-01T06:26:03;2.50;;;1.10;;
10170;SDS011;5127;50.922;6.988;2023-01-01T06:28:33;2.33;;;1.30;;
10170;SDS011;5127;50.922;6.988;2023-01-01T06:31:01;2.57;;;1.47;;
10170;SDS011;5127;50.922;6.988;2023-01-01T06:33:29;3.33;;;1.30;;
10170;SDS011;5127;50.922;6.988;2023-01-01T06:35:57;2.53;;;1.60;;
10170;SDS011;5127;50.922;6.988;2023-01-01T06:38:26;3.50;;;1.40;;
10170;SDS011;5127;50.922;6.988;2023-01-01T06:40:54;5.23;;;1.60;;
10170;SDS011;5127;50.922;6.988;2023-01-01T06:43:22;2.50;;;1.50;;
10170;SDS011;5127;50.922;6.988;2023-01-01T06:45:57;2.20;;;1.30;;
10170;SDS011;5127;50.922;6.988;2023-01-01T06:48:26;2.13;;;1.30;;
10170;SDS011;5127;50.922;6.988;2023-01-01T06:50:54;3.67;;;1.40;;
10170;SDS011;5127;50.922;6.988;2023-01-01T06:53:22;4.87;;;1.43;;
10170;SDS011;5127;50.922;6.988;2023-01-01T06:55:51;3.03;;;1.30;;
10170;SDS011;5127;50.922;6.988;2023-01-01T06:58:18;2.50;;;1.40;;
10170;SDS011;5127;50.922;6.988;2023-01-01T07:00:46;3.07;;;1.53;;
10170;SDS011;5127;50.922;6.988;2023-01-01T07:03:13;3.37;;;1.40;;
10170;SDS011;5127;50.922;6.988;2023-01-01T07:05:40;2.93;;;1.30;;
10170;SDS011;5127;50.922;6.988;2023-01-01T07:08:07;2.63;;;1.10;;
10170;SDS011;5127;50.922;6.988;2023-01-01T07:10:35;3.73;;;1.20;;
10170;SDS011;5127;50.922;6.988;2023-01-01T07:13:03;2.47;;;1.40;;
10170;SDS011;5127;50.922;6.988;2023-01-01T07:15:30;2.97;;;1.30;;
10170;SDS011;5127;50.922;6.988;2023-01-01T07:17:58;3.10;;;1.23;;
10170;SDS011;5127;50.922;6.988;2023-01-01T07:20:25;1.63;;;1.43;;
10170;SDS011;5127;50.922;6.988;2023-01-01T07:22:52;3.43;;;1.23;;
10170;SDS011;5127;50.922;6.988;2023-01-01T07:25:19;3.63;;;1.60;;
10170;SDS011;5127;50.922;6.988;2023-01-01T07:27:47;2.30;;;1.30;;
10170;SDS011;5127;50.922;6.988;2023-01-01T07:30:15;2.63;;;1.20;;
10170;SDS011;5127;50.922;6.988;2023-01-01T07:32:43;3.43;;;1.27;;
10170;SDS011;5127;50.922;6.988;2023-01-01T07:35:10;2.67;;;1.40;;
10170;SDS011;5127;50.922;6.988;2023-01-01T07:37:37;3.13;;;1.60;;
10170;SDS011;5127;50.922;6.988;2023-01-01T07:40:05;4.20;;;1.40;;
10170;SDS011;5127;50.922;6.988;2023-01-01T07:42:33;3.73;;;1.40;;
10170;SDS011;5127;50.922;6.988;2023-01-01T07:45:00;4.30;;;1.30;;
10170;SDS011;5127;50.922;6.988;2023-01-01T07:47:28;3.73;;;1.50;;
10170;SDS011;5127;50.922;6.988;2023-01-01T07:49:56;3.23;;;1.50;;
10170;SDS011;5127;50.922;6.988;2023-01-01T07:52:23;4.10;;;1.40;;
10170;SDS011;5127;50.922;6.988;2023-01-01T07:54:50;4.03;;;1.60;;
10170;SDS011;5127;50.922;6.988;2023-01-01T07:57:18;4.30;;;1.43;;
10170;SDS011;5127;50.922;6.988;2023-01-01T07:59:46;2.40;;;1.50;;
10170;SDS011;5127;50.922;6.988;2023-01-01T08:02:13;4.10;;;1.63;;
10170;SDS011;5127;50.922;6.988;2023-01-01T08:04:41;3.40;;;1.50;;
10170;SDS011;5127;50.922;6.988;2023-01-01T08:07:09;2.13;;;1.20;;
10170;SDS011;5127;50.922;6.988;2023-01-01T08:09:36;3.20;;;1.53;;
10170;SDS011;5127;50.922;6.988;2023-01-01T08:12:03;1.87;;;1.20;;
10170;SDS011;5127;50.922;6.988;2023-01-01T08:14:31;4.73;;;1.40;;
10170;SDS011;5127;50.922;6.988;2023-01-01T08:16:58;3.20;;;1.40;;
10170;SDS011;5127;50.922;6.988;2023-01-01T08:19:25;5.40;;;1.47;;
10170;SDS011;5127;50.922;6.988;2023-01-01T08:21:54;3.73;;;1.10;;
10170;SDS011;5127;50.922;6.988;2023-01-01T08:24:21;3.07;;;1.63;;
10170;SDS011;5127;50.922;6.988;2023-01-01T08:26:48;3.87;;;1.30;;
10170;SDS011;5127;50.922;6.988;2023-01-01T08:29:16;3.80;;;1.30;;
10170;SDS011;5127;50.922;6.988;2023-01-01T08:31:43;3.30;;;1.20;;
10170;SDS011;5127;50.922;6.988;2023-01-01T08:34:11;4.60;;;1.50;;
10170;SDS011;5127;50.922;6.988;2023-01-01T08:36:39;2.97;;;1.40;;
10170;SDS011;5127;50.922;6.988;2023-01-01T08:39:07;3.20;;;1.20;;
10170;SDS011;5127;50.922;6.988;2023-01-01T08:41:35;3.80;;;1.47;;
10170;SDS011;5127;50.922;6.988;2023-01-01T08:44:02;3.20;;;1.10;;
10170;SDS011;5127;50.922;6.988;2023-01-01T08:46:30;2.67;;;1.20;;
10170;SDS011;5127;50.922;6.988;2023-01-01T08:48:57;3.40;;;1.27;;
10170;SDS011;5127;50.922;6.988;2023-01-01T08:51:24;3.17;;;1.50;;
10170;SDS011;5127;50.922;6.988;2023-01-01T08:53:51;3.40;;;1.20;;
10170;SDS011;5127;50.922;6.988;2023-01-01T08:56:20;4.10;;;1.20;;
10170;SDS011;5127;50.922;6.988;2023-01-01T08:58:47;3.13;;;1.47;;
10170;SDS011;5127;50.922;6.988;2023-01-01T09:01:14;2.43;;;1.00;;
10170;SDS011;5127;50.922;6.988;2023-01-01T09:03:42;4.47;;;1.50;;
10170;SDS011;5127;50.922;6.988;2023-01-01T09:06:10;3.83;;;1.20;;
10170;SDS011;5127;50.922;6.988;2023-01-01T09:08:37;3.30;;;1.37;;
10170;SDS011;5127;50.922;6.988;2023-01-01T09:11:04;2.47;;;1.20;;
10170;SDS011;5127;50.922;6.988;2023-01-01T09:13:33;2.93;;;1.50;;
10170;SDS011;5127;50.922;6.988;2023-01-01T09:16:00;4.47;;;1.50;;
10170;SDS011;5127;50.922;6.988;2023-01-01T09:18:30;3.27;;;1.23;;
10170;SDS011;5127;50.922;6.988;2023-01-01T09:20:57;2.17;;;1.20;;
10170;SDS011;5127;50.922;6.988;2023-01-01T09:23:24;3.20;;;1.30;;
10170;SDS011;5127;50.922;6.988;2023-01-01T09:25:52;3.30;;;1.37;;
10170;SDS011;5127;50.922;6.988;2023-01-01T09:28:19;4.70;;;1.23;;
10170;SDS011;5127;50.922;6.988;2023-01-01T09:30:47;3.33;;;1.03;;
10170;SDS011;5127;50.922;6.988;2023-01-01T09:33:14;3.40;;;1.40;;
10170;SDS011;5127;50.922;6.988;2023-01-01T09:35:42;5.80;;;1.70;;
10170;SDS011;5127;50.922;6.988;2023-01-01T09:38:09;2.90;;;1.20;;
10170;SDS011;5127;50.922;6.988;2023-01-01T09:40:41;3.40;;;1.10;;
10170;SDS011;5127;50.922;6.988;2023-01-01T09:43:17;2.67;;;1.30;;
10170;SDS011;5127;50.922;6.988;2023-01-01T09:45:55;2.30;;;1.17;;
10170;SDS011;5127;50.922;6.988;2023-01-01T09:48:26;2.70;;;1.20;;
10170;SDS011;5127;50.922;6.988;2023-01-01T09:50:55;1.90;;;1.03;;
10170;SDS011;5127;50.922;6.988;2023-01-01T09:53:26;2.90;;;0.93;;
10170;SDS011;5127;50.922;6.988;2023-01-01T09:55:59;2.43;;;1.07;;
10170;SDS011;5127;50.922;6.988;2023-01-01T09:58:30;4.17;;;1.30;;
10170;SDS011;5127;50.922;6.988;2023-01-01T10:01:02;2.30;;;1.10;;
10170;SDS011;5127;50.922;6.988;2023-01-01T10:03:36;2.10;;;1.00;;
10170;SDS011;5127;50.922;6.988;2023-01-01T10:06:17;3.23;;;1.27;;
10170;SDS011;5127;50.922;6.988;2023-01-01T10:08:58;2.37;;;0.90;;
10170;SDS011;5127;50.922;6.988;2023-01-01T10:11:37;2.90;;;1.10;;
10170;SDS011;5127;50.922;6.988;2023-01-01T10:14:13;4.37;;;1.10;;
10170;SDS011;5127;50.922;6.988;2023-01-01T10:16:45;2.43;;;1.00;;
10170;SDS011;5127;50.922;6.988;2023-01-01T10:19:19;1.80;;;1.20;;
10170;SDS011;5127;50.922;6.988;2023-01-01T10:21:51;2.87;;;1.10;;
10170;SDS011;5127;50.922;6.988;2023-01-01T10:24:30;2.03;;;1.20;;
10170;SDS011;5127;50.922;6.988;2023-01-01T10:27:08;2.87;;;1.43;;
10170;SDS011;5127;50.922;6.988;2023-01-01T10:29:46;3.40;;;1.20;;
10170;SDS011;5127;50.922;6.988;2023-01-01T10:32:18;3.87;;;1.20;;
10170;SDS011;5127;50.922;6.988;2023-01-01T10:34:47;3.50;;;1.07;;
10170;SDS011;5127;50.922;6.988;2023-01-01T10:37:15;2.50;;;1.17;;
10170;SDS011;5127;50.922;6.988;2023-01-01T10:39:43;3.50;;;1.27;;
10170;SDS011;5127;50.922;6.988;2023-01-01T10:42:12;2.63;;;1.47;;
10170;SDS011;5127;50.922;6.988;2023-01-01T10:44:41;3.27;;;1.10;;
10170;SDS011;5127;50.922;6.988;2023-01-01T10:47:23;4.07;;;1.30;;
10170;SDS011;5127;50.922;6.988;2023-01-01T10:49:56;2.17;;;1.17;;
10170;SDS011;5127;50.922;6.988;2023-01-01T10:52:29;1.73;;;1.00;;
10170;SDS011;5127;50.922;6.988;2023-01-01T10:55:01;5.10;;;1.30;;
10170;SDS011;5127;50.922;6.988;2023-01-01T10:57:31;3.43;;;1.20;;
10170;SDS011;5127;50.922;6.988;2023-01-01T11:03:10;5.87;;;1.50;;
10170;SDS011;5127;50.922;6.988;2023-01-01T11:08:27;3.57;;;1.23;;
10170;SDS011;5127;50.922;6.988;2023-01-01T11:10:55;1.83;;;1.10;;
10170;SDS011;5127;50.922;6.988;2023-01-01T11:13:24;4.07;;;1.20;;
10170;SDS011;5127;50.922;6.988;2023-01-01T11:15:52;4.23;;;1.50;;
10170;SDS011;5127;50.922;6.988;2023-01-01T11:18:22;1.70;;;1.00;;
10170;SDS011;5127;50.922;6.988;2023-01-01T11:20:54;3.10;;;1.10;;
10170;SDS011;5127;50.922;6.988;2023-01-01T11:23:27;2.77;;;0.97;;
10170;SDS011;5127;50.922;6.988;2023-01-01T11:25:57;2.17;;;1.30;;
10170;SDS011;5127;50.922;6.988;2023-01-01T11:28:28;3.17;;;1.30;;
10170;SDS011;5127;50.922;6.988;2023-01-01T11:31:00;1.80;;;1.20;;
10170;SDS011;5127;50.922;6.988;2023-01-01T11:33:34;2.53;;;0.90;;
10170;SDS011;5127;50.922;6.988;2023-01-01T11:36:05;3.30;;;1.00;;
10170;SDS011;5127;50.922;6.988;2023-01-01T11:38:33;1.73;;;1.00;;
10170;SDS011;5127;50.922;6.988;2023-01-01T11:41:01;2.43;;;1.10;;
10170;SDS011;5127;50.922;6.988;2023-01-01T11:43:33;1.73;;;1.00;;
10170;SDS011;5127;50.922;6.988;2023-01-01T11:46:08;3.10;;;1.20;;
10170;SDS011;5127;50.922;6.988;2023-01-01T11:48:42;3.13;;;1.20;;
10170;SDS011;5127;50.922;6.988;2023-01-01T11:51:11;2.60;;;1.10;;
10170;SDS011;5127;50.922;6.988;2023-01-01T11:54:06;4.30;;;1.10;;
10170;SDS011;5127;50.922;6.988;2023-01-01T11:56:48;2.97;;;1.40;;
10170;SDS011;5127;50.922;6.988;2023-01-01T11:59:19;5.57;;;1.10;;
10170;SDS011;5127;50.922;6.988;2023-01-01T12:01:52;2.07;;;1.27;;
10170;SDS011;5127;50.922;6.988;2023-01-01T12:04:25;2.60;;;1.23;;
10170;SDS011;5127;50.922;6.988;2023-01-01T12:06:57;2.23;;;1.30;;
10170;SDS011;5127;50.922;6.988;2023-01-01T12:09:31;4.20;;;1.17;;
10170;SDS011;5127;50.922;6.988;2023-01-01T12:12:04;2.57;;;1.20;;
10170;SDS011;5127;50.922;6.988;2023-01-01T12:14:39;2.13;;;1.07;;
10170;SDS011;5127;50.922;6.988;2023-01-01T12:17:15;2.60;;;1.10;;
10170;SDS011;5127;50.922;6.988;2023-01-01T12:19:51;4.17;;;1.40;;
10170;SDS011;5127;50.922;6.988;2023-01-01T12:22:25;3.43;;;1.10;;
10170;SDS011;5127;50.922;6.988;2023-01-01T12:24:53;3.23;;;0.83;;
10170;SDS011;5127;50.922;6.988;2023-01-01T12:27:32;5.90;;;1.30;;
10170;SDS011;5127;50.922;6.988;2023-01-01T12:30:12;3.00;;;1.10;;
10170;SDS011;5127;50.922;6.988;2023-01-01T12:32:55;3.80;;;1.30;;
10170;SDS011;5127;50.922;6.988;2023-01-01T12:35:39;2.07;;;1.13;;
10170;SDS011;5127;50.922;6.988;2023-01-01T12:38:16;4.37;;;1.20;;
10170;SDS011;5127;50.922;6.988;2023-01-01T12:40:51;1.97;;;1.10;;
10170;SDS011;5127;50.922;6.988;2023-01-01T12:43:26;3.17;;;1.20;;
10170;SDS011;5127;50.922;6.988;2023-01-01T12:46:20;2.30;;;1.10;;
10170;SDS011;5127;50.922;6.988;2023-01-01T12:48:59;2.33;;;1.20;;
10170;SDS011;5127;50.922;6.988;2023-01-01T12:51:46;2.27;;;1.20;;
10170;SDS011;5127;50.922;6.988;2023-01-01T12:57:22;3.30;;;1.10;;
10170;SDS011;5127;50.922;6.988;2023-01-01T12:59:54;3.60;;;1.17;;
10170;SDS011;5127;50.922;6.988;2023-01-01T13:02:28;2.73;;;1.13;;
10170;SDS011;5127;50.922;6.988;2023-01-01T13:05:00;2.60;;;1.43;;
10170;SDS011;5127;50.922;6.988;2023-01-01T13:07:33;5.20;;;1.40;;
10170;SDS011;5127;50.922;6.988;2023-01-01T13:10:06;3.47;;;1.40;;
10170;SDS011;5127;50.922;6.988;2023-01-01T13:12:42;3.77;;;1.30;;
10170;SDS011;5127;50.922;6.988;2023-01-01T13:18:16;3.53;;;1.17;;
10170;SDS011;5127;50.922;6.988;2023-01-01T13:20:56;3.73;;;1.60;;
10170;SDS011;5127;50.922;6.988;2023-01-01T13:23:42;2.87;;;1.20;;
10170;SDS011;5127;50.922;6.988;2023-01-01T13:26:29;3.70;;;1.50;;
10170;SDS011;5127;50.922;6.988;2023-01-01T13:32:09;1.50;;;1.17;;
10170;SDS011;5127;50.922;6.988;2023-01-01T13:34:41;3.30;;;1.20;;
10170;SDS011;5127;50.922;6.988;2023-01-01T13:37:24;2.70;;;1.10;;
10170;SDS011;5127;50.922;6.988;2023-01-01T13:39:55;4.03;;;1.40;;
10170;SDS011;5127;50.922;6.988;2023-01-01T13:42:36;4.23;;;1.40;;
10170;SDS011;5127;50.922;6.988;2023-01-01T13:45:12;3.97;;;1.10;;
10170;SDS011;5127;50.922;6.988;2023-01-01T13:47:49;2.67;;;1.10;;
10170;SDS011;5127;50.922;6.988;2023-01-01T13:50:31;1.90;;;1.00;;
10170;SDS011;5127;50.922;6.988;2023-01-01T13:53:15;2.83;;;1.17;;
10170;SDS011;5127;50.922;6.988;2023-01-01T13:56:02;2.20;;;1.20;;
10170;SDS011;5127;50.922;6.988;2023-01-01T13:58:53;2.40;;;1.10;;
10170;SDS011;5127;50.922;6.988;2023-01-01T14:01:53;3.40;;;1.03;;
10170;SDS011;5127;50.922;6.988;2023-01-01T14:04:29;2.43;;;1.10;;
10170;SDS011;5127;50.922;6.988;2023-01-01T14:07:05;2.40;;;1.10;;
10170;SDS011;5127;50.922;6.988;2023-01-01T14:09:39;5.80;;;1.23;;
10170;SDS011;5127;50.922;6.988;2023-01-01T14:12:09;2.70;;;1.20;;
10170;SDS011;5127;50.922;6.988;2023-01-01T14:14:43;3.37;;;1.30;;
10170;SDS011;5127;50.922;6.988;2023-01-01T14:17:11;3.87;;;1.40;;
10170;SDS011;5127;50.922;6.988;2023-01-01T14:19:40;3.30;;;1.10;;
10170;SDS011;5127;50.922;6.988;2023-01-01T14:22:09;1.37;;;1.10;;
10170;SDS011;5127;50.922;6.988;2023-01-01T14:24:40;3.27;;;1.40;;
10170;SDS011;5127;50.922;6.988;2023-01-01T14:27:15;2.67;;;1.27;;
10170;SDS011;5127;50.922;6.988;2023-01-01T14:29:45;1.80;;;0.93;;
10170;SDS011;5127;50.922;6.988;2023-01-01T14:32:20;4.03;;;1.63;;
10170;SDS011;5127;50.922;6.988;2023-01-01T14:34:57;1.77;;;1.10;;
10170;SDS011;5127;50.922;6.988;2023-01-01T14:37:26;3.03;;;1.10;;
10170;SDS011;5127;50.922;6.988;2023-01-01T14:40:03;2.43;;;1.10;;
10170;SDS011;5127;50.922;6.988;2023-01-01T14:42:34;2.80;;;1.10;;
10170;SDS011;5127;50.922;6.988;2023-01-01T14:45:03;2.47;;;1.10;;
10170;SDS011;5127;50.922;6.988;2023-01-01T14:47:32;2.23;;;1.30;;
10170;SDS011;5127;50.922;6.988;2023-01-01T14:50:02;2.50;;;1.20;;
10170;SDS011;5127;50.922;6.988;2023-01-01T14:52:37;1.80;;;0.93;;
10170;SDS011;5127;50.922;6.988;2023-01-01T14:55:06;1.53;;;0.80;;
10170;SDS011;5127;50.922;6.988;2023-01-01T14:57:44;3.33;;;1.30;;
10170;SDS011;5127;50.922;6.988;2023-01-01T15:00:20;2.17;;;1.07;;
10170;SDS011;5127;50.922;6.988;2023-01-01T15:02:49;2.03;;;0.90;;
10170;SDS011;5127;50.922;6.988;2023-01-01T15:05:25;1.70;;;1.10;;
10170;SDS011;5127;50.922;6.988;2023-01-01T15:07:55;2.70;;;1.20;;
10170;SDS011;5127;50.922;6.988;2023-01-01T15:10:24;2.40;;;1.10;;
10170;SDS011;5127;50.922;6.988;2023-01-01T15:12:54;2.93;;;1.10;;
10170;SDS011;5127;50.922;6.988;2023-01-01T15:15:32;1.50;;;1.00;;
10170;SDS011;5127;50.922;6.988;2023-01-01T15:18:02;2.73;;;0.93;;
10170;SDS011;5127;50.922;6.988;2023-01-01T15:20:30;1.73;;;0.93;;
10170;SDS011;5127;50.922;6.988;2023-01-01T15:22:58;2.43;;;1.20;;
10170;SDS011;5127;50.922;6.988;2023-01-01T15:25:26;2.03;;;1.17;;
10170;SDS011;5127;50.922;6.988;2023-01-01T15:27:57;1.43;;;1.10;;
10170;SDS011;5127;50.922;6.988;2023-01-01T15:30:26;2.50;;;1.10;;
10170;SDS011;5127;50.922;6.988;2023-01-01T15:32:56;1.10;;;0.90;;
10170;SDS011;5127;50.922;6.988;2023-01-01T15:35:32;1.97;;;1.27;;
10170;SDS011;5127;50.922;6.988;2023-01-01T15:38:03;3.03;;;1.43;;
10170;SDS011;5127;50.922;6.988;2023-01-01T15:40:37;1.63;;;1.10;;